sensor_id;sensor_type;location;lat;lon;timestamp;temperature;humidity
7814;DHT22;3952;48.364;16.022;2023-03-03T00:00:07;1.10;99.90
7814;DHT22;3952;48.364;16.022;2023-03-03T00:02:35;1.10;99.90
7814;DHT22;3952;48.364;16.022;2023-03-03T00:05:02;1.10;99.90
7814;DHT22;3952;48.364;16.022;2023-03-03T00:07:31;1.10;99.90
7814;DHT22;3952;48.364;16.022;2023-03-03T00:09:58;1.20;99.90
7814;DHT22;3952;48.364;16.022;2023-03-03T00:12:27;1.10;99.90
7814;DHT22;3952;48.364;16.022;2023-03-03T00:14:55;1.10;99.90
7814;DHT22;3952;48.364;16.022;2023-03-03T00:17:24;1.10;99.90
7814;DHT22;3952;48.364;16.022;2023-03-03T00:19:52;1.00;99.90
7814;DHT22;3952;48.364;16.022;2023-03-03T00:22:27;1.10;99.90
7814;DHT22;3952;48.364;16.022;2023-03-03T00:24:58;1.10;99.90
7814;DHT22;3952;48.364;16.022;2023-03-03T00:27:29;1.10;99.90
7814;DHT22;3952;48.364;16.022;2023-03-03T00:29:58;1.20;99.90
7814;DHT22;3952;48.364;16.022;2023-03-03T00:32:29;1.20;99.90
7814;DHT22;3952;48.364;16.022;2023-03-03T00:35:01;1.20;99.90
7814;DHT22;3952;48.364;16.022;2023-03-03T00:37:42;1.10;99.90
7814;DHT22;3952;48.364;16.022;2023-03-03T00:40:19;1.10;99.90
7814;DHT22;3952;48.364;16.022;2023-03-03T00:42:51;1.10;99.90
7814;DHT22;3952;48.364;16.022;2023-03-03T00:45:37;1.10;99.90
7814;DHT22;3952;48.364;16.022;2023-03-03T00:48:19;1.10;99.90
7814;DHT22;3952;48.364;16.022;2023-03-03T00:50:47;1.00;99.90
7814;DHT22;3952;48.364;16.022;2023-03-03T00:53:15;1.00;99.90
7814;DHT22;3952;48.364;16.022;2023-03-03T00:55:45;1.00;99.90
7814;DHT22;3952;48.364;16.022;2023-03-03T00:58:13;1.00;99.90
7814;DHT22;3952;48.364;16.022;2023-03-03T01:00:40;1.00;99.90
7814;DHT22;3952;48.364;16.022;2023-03-03T01:03:09;1.00;99.90
7814;DHT22;3952;48.364;16.022;2023-03-03T01:05:36;1.00;99.90
7814;DHT22;3952;48.364;16.022;2023-03-03T01:08:04;0.90;99.90
7814;DHT22;3952;48.364;16.022;2023-03-03T01:10:34;0.90;99.90
7814;DHT22;3952;48.364;16.022;2023-03-03T01:13:04;0.90;99.90
7814;DHT22;3952;48.364;16.022;2023-03-03T01:15:32;0.90;99.90
7814;DHT22;3952;48.364;16.022;2023-03-03T01:17:59;0.90;99.90
7814;DHT22;3952;48.364;16.022;2023-03-03T01:20:27;0.90;99.90
7814;DHT22;3952;48.364;16.022;2023-03-03T01:22:54;0.90;99.90
7814;DHT22;3952;48.364;16.022;2023-03-03T01:25:21;0.90;99.90
7814;DHT22;3952;48.364;16.022;2023-03-03T01:27:48;0.80;99.90
7814;DHT22;3952;48.364;16.022;2023-03-03T01:30:17;0.80;99.90
7814;DHT22;3952;48.364;16.022;2023-03-03T01:32:44;0.80;99.90
7814;DHT22;3952;48.364;16.022;2023-03-03T01:35:12;0.70;99.90
7814;DHT22;3952;48.364;16.022;2023-03-03T01:37:39;0.70;99.90
7814;DHT22;3952;48.364;16.022;2023-03-03T01:40:13;0.60;99.90
7814;DHT22;3952;48.364;16.022;2023-03-03T01:42:41;0.50;99.90
7814;DHT22;3952;48.364;16.022;2023-03-03T01:45:15;0.50;99.90
7814;DHT22;3952;48.364;16.022;2023-03-03T01:47:50;0.50;99.90
7814;DHT22;3952;48.364;16.022;2023-03-03T01:50:29;0.50;99.90
7814;DHT22;3952;48.364;16.022;2023-03-03T01:52:58;0.50;99.90
7814;DHT22;3952;48.364;16.022;2023-03-03T01:55:31;0.50;99.90
7814;DHT22;3952;48.364;16.022;2023-03-03T01:58:03;0.40;99.90
7814;DHT22;3952;48.364;16.022;2023-03-03T02:00:34;0.40;99.90
7814;DHT22;3952;48.364;16.022;2023-03-03T02:03:04;0.40;99.90
7814;DHT22;3952;48.364;16.022;2023-03-03T02:05:32;0.30;99.90
7814;DHT22;3952;48.364;16.022;2023-03-03T02:07:59;0.30;99.90
7814;DHT22;3952;48.364;16.022;2023-03-03T02:10:27;0.30;99.90
7814;DHT22;3952;48.364;16.022;2023-03-03T02:12:56;0.20;99.90
7814;DHT22;3952;48.364;16.022;2023-03-03T02:15:25;0.20;99.90
7814;DHT22;3952;48.364;16.022;2023-03-03T02:17:55;0.20;99.90
7814;DHT22;3952;48.364;16.022;2023-03-03T02:20:36;0.20;99.90
7814;DHT22;3952;48.364;16.022;2023-03-03T02:23:08;0.20;99.90
7814;DHT22;3952;48.364;16.022;2023-03-03T02:25:43;0.20;99.90
7814;DHT22;3952;48.364;16.022;2023-03-03T02:28:12;0.10;99.90
7814;DHT22;3952;48.364;16.022;2023-03-03T02:30:40;0.10;99.90
7814;DHT22;3952;48.364;16.022;2023-03-03T02:33:07;0.10;99.90
7814;DHT22;3952;48.364;16.022;2023-03-03T02:35:36;0.10;99.90
7814;DHT22;3952;48.364;16.022;2023-03-03T02:38:16;0.10;99.90
7814;DHT22;3952;48.364;16.022;2023-03-03T02:40:52;0.20;99.90
7814;DHT22;3952;48.364;16.022;2023-03-03T02:43:27;0.20;99.90
7814;DHT22;3952;48.364;16.022;2023-03-03T02:45:56;0.10;99.90
7814;DHT22;3952;48.364;16.022;2023-03-03T02:48:23;0.10;99.90
7814;DHT22;3952;48.364;16.022;2023-03-03T02:50:50;0.10;99.90
7814;DHT22;3952;48.364;16.022;2023-03-03T02:53:20;0.10;99.90
7814;DHT22;3952;48.364;16.022;2023-03-03T02:55:47;0.00;99.90
7814;DHT22;3952;48.364;16.022;2023-03-03T02:58:15;0.00;99.90
7814;DHT22;3952;48.364;16.022;2023-03-03T03:00:43;0.00;99.90
7814;DHT22;3952;48.364;16.022;2023-03-03T03:03:12;0.00;99.90
7814;DHT22;3952;48.364;16.022;2023-03-03T03:05:40;0.00;99.90
7814;DHT22;3952;48.364;16.022;2023-03-03T03:08:07;0.00;99.90
7814;DHT22;3952;48.364;16.022;2023-03-03T03:10:35;0.00;99.90
7814;DHT22;3952;48.364;16.022;2023-03-03T03:13:03;-0.10;99.90
7814;DHT22;3952;48.364;16.022;2023-03-03T03:15:30;-0.10;99.90
7814;DHT22;3952;48.364;16.022;2023-03-03T03:17:58;-0.10;99.90
7814;DHT22;3952;48.364;16.022;2023-03-03T03:20:28;-0.10;99.90
7814;DHT22;3952;48.364;16.022;2023-03-03T03:22:55;-0.10;99.90
7814;DHT22;3952;48.364;16.022;2023-03-03T03:25:22;-0.10;99.90
7814;DHT22;3952;48.364;16.022;2023-03-03T03:27:52;0.00;99.90
7814;DHT22;3952;48.364;16.022;2023-03-03T03:30:19;0.00;99.90
7814;DHT22;3952;48.364;16.022;2023-03-03T03:32:47;0.00;99.90
7814;DHT22;3952;48.364;16.022;2023-03-03T03:35:16;0.00;99.90
7814;DHT22;3952;48.364;16.022;2023-03-03T03:37:43;0.00;99.90
7814;DHT22;3952;48.364;16.022;2023-03-03T03:40:11;0.00;99.90
7814;DHT22;3952;48.364;16.022;2023-03-03T03:42:38;-0.10;99.90
7814;DHT22;3952;48.364;16.022;2023-03-03T03:45:07;-0.10;99.90
7814;DHT22;3952;48.364;16.022;2023-03-03T03:47:35;-0.20;99.90
7814;DHT22;3952;48.364;16.022;2023-03-03T03:50:02;-0.30;99.90
7814;DHT22;3952;48.364;16.022;2023-03-03T03:52:31;-0.40;99.90
7814;DHT22;3952;48.364;16.022;2023-03-03T03:54:58;-0.40;99.90
7814;DHT22;3952;48.364;16.022;2023-03-03T03:57:25;-0.30;99.90
7814;DHT22;3952;48.364;16.022;2023-03-03T03:59:53;-0.30;99.90
7814;DHT22;3952;48.364;16.022;2023-03-03T04:02:20;-0.30;99.90
7814;DHT22;3952;48.364;16.022;2023-03-03T04:04:47;-0.20;99.90
7814;DHT22;3952;48.364;16.022;2023-03-03T04:07:14;-0.20;99.90
7814;DHT22;3952;48.364;16.022;2023-03-03T04:09:43;-0.20;99.90
7814;DHT22;3952;48.364;16.022;2023-03-03T04:12:10;-0.30;99.90
7814;DHT22;3952;48.364;16.022;2023-03-03T04:14:37;-0.30;99.90
7814;DHT22;3952;48.364;16.022;2023-03-03T04:17:05;-0.40;99.90
7814;DHT22;3952;48.364;16.022;2023-03-03T04:19:32;-0.40;99.90
7814;DHT22;3952;48.364;16.022;2023-03-03T04:21:59;-0.50;99.90
7814;DHT22;3952;48.364;16.022;2023-03-03T04:24:26;-0.50;99.90
7814;DHT22;3952;48.364;16.022;2023-03-03T04:26:55;-0.50;99.90
7814;DHT22;3952;48.364;16.022;2023-03-03T04:29:22;-0.50;99.90
7814;DHT22;3952;48.364;16.022;2023-03-03T04:31:49;-0.60;99.90
7814;DHT22;3952;48.364;16.022;2023-03-03T04:34:16;-0.60;99.90
7814;DHT22;3952;48.364;16.022;2023-03-03T04:36:43;-0.60;99.90
7814;DHT22;3952;48.364;16.022;2023-03-03T04:39:11;-0.60;99.90
7814;DHT22;3952;48.364;16.022;2023-03-03T04:41:38;-0.60;99.90
7814;DHT22;3952;48.364;16.022;2023-03-03T04:44:07;-0.60;99.90
7814;DHT22;3952;48.364;16.022;2023-03-03T04:46:34;-0.60;99.90
7814;DHT22;3952;48.364;16.022;2023-03-03T04:49:02;-0.60;99.90
7814;DHT22;3952;48.364;16.022;2023-03-03T04:51:30;-0.60;99.90
7814;DHT22;3952;48.364;16.022;2023-03-03T04:53:57;-0.60;99.90
7814;DHT22;3952;48.364;16.022;2023-03-03T04:56:24;-0.60;99.90
7814;DHT22;3952;48.364;16.022;2023-03-03T04:58:53;0.60;99.90
7814;DHT22;3952;48.364;16.022;2023-03-03T05:01:21;-0.60;99.90
7814;DHT22;3952;48.364;16.022;2023-03-03T05:03:49;-0.70;99.90
7814;DHT22;3952;48.364;16.022;2023-03-03T05:06:16;-0.70;99.90
7814;DHT22;3952;48.364;16.022;2023-03-03T05:08:44;-0.70;99.90
7814;DHT22;3952;48.364;16.022;2023-03-03T05:11:11;-0.70;99.90
7814;DHT22;3952;48.364;16.022;2023-03-03T05:13:38;-0.70;99.90
7814;DHT22;3952;48.364;16.022;2023-03-03T05:16:06;-0.60;99.90
7814;DHT22;3952;48.364;16.022;2023-03-03T05:18:35;-0.60;99.90
7814;DHT22;3952;48.364;16.022;2023-03-03T05:21:03;-0.60;99.90
7814;DHT22;3952;48.364;16.022;2023-03-03T05:23:30;-0.60;99.90
7814;DHT22;3952;48.364;16.022;2023-03-03T05:25:57;-0.60;99.90
7814;DHT22;3952;48.364;16.022;2023-03-03T05:28:25;-0.60;99.90
7814;DHT22;3952;48.364;16.022;2023-03-03T05:30:52;-0.70;99.90
7814;DHT22;3952;48.364;16.022;2023-03-03T05:33:19;-0.70;99.90
7814;DHT22;3952;48.364;16.022;2023-03-03T05:35:52;-0.70;99.90
7814;DHT22;3952;48.364;16.022;2023-03-03T05:38:20;-0.80;99.90
7814;DHT22;3952;48.364;16.022;2023-03-03T05:40:47;-0.80;99.90
7814;DHT22;3952;48.364;16.022;2023-03-03T05:43:14;-0.90;99.90
7814;DHT22;3952;48.364;16.022;2023-03-03T05:45:41;-0.80;99.90
7814;DHT22;3952;48.364;16.022;2023-03-03T05:48:09;-0.80;99.90
7814;DHT22;3952;48.364;16.022;2023-03-03T05:50:37;-0.80;99.90
7814;DHT22;3952;48.364;16.022;2023-03-03T05:53:06;-0.80;99.90
7814;DHT22;3952;48.364;16.022;2023-03-03T05:55:33;-0.80;99.90
7814;DHT22;3952;48.364;16.022;2023-03-03T05:58:00;-1.60;99.90
7814;DHT22;3952;48.364;16.022;2023-03-03T06:00:28;-0.80;99.90
7814;DHT22;3952;48.364;16.022;2023-03-03T06:02:55;-0.90;99.90
7814;DHT22;3952;48.364;16.022;2023-03-03T06:05:22;-0.10;99.90
7814;DHT22;3952;48.364;16.022;2023-03-03T06:07:50;-0.90;99.90
7814;DHT22;3952;48.364;16.022;2023-03-03T06:10:19;-0.90;99.90
7814;DHT22;3952;48.364;16.022;2023-03-03T06:12:46;-0.90;99.90
7814;DHT22;3952;48.364;16.022;2023-03-03T06:15:13;-0.80;99.90
7814;DHT22;3952;48.364;16.022;2023-03-03T06:17:42;-0.90;99.90
7814;DHT22;3952;48.364;16.022;2023-03-03T06:20:10;-0.80;99.90
7814;DHT22;3952;48.364;16.022;2023-03-03T06:22:37;-0.80;99.90
7814;DHT22;3952;48.364;16.022;2023-03-03T06:25:05;-0.80;99.90
7814;DHT22;3952;48.364;16.022;2023-03-03T06:27:33;-0.80;99.90
7814;DHT22;3952;48.364;16.022;2023-03-03T06:30:01;-0.70;99.90
7814;DHT22;3952;48.364;16.022;2023-03-03T06:32:28;-0.60;99.90
7814;DHT22;3952;48.364;16.022;2023-03-03T06:34:56;-0.60;99.90
7814;DHT22;3952;48.364;16.022;2023-03-03T06:37:23;-0.60;99.90
7814;DHT22;3952;48.364;16.022;2023-03-03T06:39:50;-0.60;99.90
7814;DHT22;3952;48.364;16.022;2023-03-03T06:42:17;-0.60;99.90
7814;DHT22;3952;48.364;16.022;2023-03-03T06:44:47;-0.50;99.90
7814;DHT22;3952;48.364;16.022;2023-03-03T06:47:14;-0.50;99.90
7814;DHT22;3952;48.364;16.022;2023-03-03T06:49:41;-0.50;99.90
7814;DHT22;3952;48.364;16.022;2023-03-03T06:52:11;-0.50;99.90
7814;DHT22;3952;48.364;16.022;2023-03-03T06:54:39;-0.50;99.90
7814;DHT22;3952;48.364;16.022;2023-03-03T06:57:15;-0.40;99.90
7814;DHT22;3952;48.364;16.022;2023-03-03T06:59:44;-0.30;99.90
7814;DHT22;3952;48.364;16.022;2023-03-03T07:02:16;-0.30;99.90
7814;DHT22;3952;48.364;16.022;2023-03-03T07:04:44;-0.20;99.90
7814;DHT22;3952;48.364;16.022;2023-03-03T07:07:16;0.00;99.90
7814;DHT22;3952;48.364;16.022;2023-03-03T07:09:46;0.30;99.90
7814;DHT22;3952;48.364;16.022;2023-03-03T07:12:17;0.80;99.90
7814;DHT22;3952;48.364;16.022;2023-03-03T07:14:49;1.40;99.90
7814;DHT22;3952;48.364;16.022;2023-03-03T07:17:31;2.00;99.90
7814;DHT22;3952;48.364;16.022;2023-03-03T07:20:01;2.80;99.90
7814;DHT22;3952;48.364;16.022;2023-03-03T07:22:37;3.40;99.90
7814;DHT22;3952;48.364;16.022;2023-03-03T07:25:21;4.20;99.90
7814;DHT22;3952;48.364;16.022;2023-03-03T07:27:52;4.60;99.90
7814;DHT22;3952;48.364;16.022;2023-03-03T07:30:25;5.00;99.90
7814;DHT22;3952;48.364;16.022;2023-03-03T07:32:55;5.30;99.90
7814;DHT22;3952;48.364;16.022;2023-03-03T07:35:34;5.40;99.90
7814;DHT22;3952;48.364;16.022;2023-03-03T07:38:28;5.60;99.90
7814;DHT22;3952;48.364;16.022;2023-03-03T07:40:58;5.50;99.90
7814;DHT22;3952;48.364;16.022;2023-03-03T07:43:34;6.50;99.90
7814;DHT22;3952;48.364;16.022;2023-03-03T07:46:16;7.00;99.90
7814;DHT22;3952;48.364;16.022;2023-03-03T07:48:47;7.40;99.90
7814;DHT22;3952;48.364;16.022;2023-03-03T07:51:19;7.90;99.90
7814;DHT22;3952;48.364;16.022;2023-03-03T07:53:48;8.20;99.90
7814;DHT22;3952;48.364;16.022;2023-03-03T07:56:26;8.20;99.90
7814;DHT22;3952;48.364;16.022;2023-03-03T07:58:55;7.50;99.90
7814;DHT22;3952;48.364;16.022;2023-03-03T08:01:34;8.20;99.90
7814;DHT22;3952;48.364;16.022;2023-03-03T08:04:16;8.20;99.90
7814;DHT22;3952;48.364;16.022;2023-03-03T08:06:50;8.00;99.90
7814;DHT22;3952;48.364;16.022;2023-03-03T08:09:42;7.60;99.90
7814;DHT22;3952;48.364;16.022;2023-03-03T08:12:38;7.40;99.90
7814;DHT22;3952;48.364;16.022;2023-03-03T08:15:27;7.40;99.90
7814;DHT22;3952;48.364;16.022;2023-03-03T08:18:01;7.60;99.90
7814;DHT22;3952;48.364;16.022;2023-03-03T08:20:46;7.70;99.90
7814;DHT22;3952;48.364;16.022;2023-03-03T08:23:15;8.00;99.90
7814;DHT22;3952;48.364;16.022;2023-03-03T08:25:44;8.20;99.90
7814;DHT22;3952;48.364;16.022;2023-03-03T08:28:12;8.30;99.90
7814;DHT22;3952;48.364;16.022;2023-03-03T08:30:40;8.40;99.90
7814;DHT22;3952;48.364;16.022;2023-03-03T08:33:07;8.50;99.90
7814;DHT22;3952;48.364;16.022;2023-03-03T08:35:35;8.60;99.90
7814;DHT22;3952;48.364;16.022;2023-03-03T08:38:04;8.80;99.90
7814;DHT22;3952;48.364;16.022;2023-03-03T08:40:31;9.10;99.90
7814;DHT22;3952;48.364;16.022;2023-03-03T08:42:58;9.30;99.90
7814;DHT22;3952;48.364;16.022;2023-03-03T08:45:26;9.50;99.90
7814;DHT22;3952;48.364;16.022;2023-03-03T08:47:54;9.70;99.90
7814;DHT22;3952;48.364;16.022;2023-03-03T08:50:21;9.60;99.90
7814;DHT22;3952;48.364;16.022;2023-03-03T08:52:49;9.50;99.90
7814;DHT22;3952;48.364;16.022;2023-03-03T08:55:17;9.30;99.90
7814;DHT22;3952;48.364;16.022;2023-03-03T08:57:45;9.10;99.90
7814;DHT22;3952;48.364;16.022;2023-03-03T09:00:14;9.10;99.90
7814;DHT22;3952;48.364;16.022;2023-03-03T09:02:42;9.20;99.90
7814;DHT22;3952;48.364;16.022;2023-03-03T09:05:10;9.30;99.90
7814;DHT22;3952;48.364;16.022;2023-03-03T09:07:37;9.40;99.90
7814;DHT22;3952;48.364;16.022;2023-03-03T09:10:05;9.80;99.90
7814;DHT22;3952;48.364;16.022;2023-03-03T09:12:36;10.20;99.90
7814;DHT22;3952;48.364;16.022;2023-03-03T09:15:14;10.30;99.90
7814;DHT22;3952;48.364;16.022;2023-03-03T09:17:42;9.90;99.90
7814;DHT22;3952;48.364;16.022;2023-03-03T09:20:26;9.80;99.90
7814;DHT22;3952;48.364;16.022;2023-03-03T09:22:54;10.00;99.90
7814;DHT22;3952;48.364;16.022;2023-03-03T09:25:28;10.20;99.90
7814;DHT22;3952;48.364;16.022;2023-03-03T09:27:58;10.20;99.90
7814;DHT22;3952;48.364;16.022;2023-03-03T09:30:35;9.90;99.90
7814;DHT22;3952;48.364;16.022;2023-03-03T09:33:20;9.60;99.90
7814;DHT22;3952;48.364;16.022;2023-03-03T09:35:51;9.40;99.90
7814;DHT22;3952;48.364;16.022;2023-03-03T09:38:28;9.50;99.90
7814;DHT22;3952;48.364;16.022;2023-03-03T09:41:27;9.60;99.90
7814;DHT22;3952;48.364;16.022;2023-03-03T09:44:11;9.80;99.90
7814;DHT22;3952;48.364;16.022;2023-03-03T09:46:53;10.00;99.90
7814;DHT22;3952;48.364;16.022;2023-03-03T09:49:30;10.30;99.90
7814;DHT22;3952;48.364;16.022;2023-03-03T09:52:18;10.20;99.90
7814;DHT22;3952;48.364;16.022;2023-03-03T09:54:58;10.50;99.90
7814;DHT22;3952;48.364;16.022;2023-03-03T09:57:39;11.00;99.90
7814;DHT22;3952;48.364;16.022;2023-03-03T10:00:24;11.20;99.90
7814;DHT22;3952;48.364;16.022;2023-03-03T10:03:11;11.40;99.90
7814;DHT22;3952;48.364;16.022;2023-03-03T10:05:49;11.70;99.90
7814;DHT22;3952;48.364;16.022;2023-03-03T10:11:16;12.10;99.90
7814;DHT22;3952;48.364;16.022;2023-03-03T10:14:02;12.20;99.90
7814;DHT22;3952;48.364;16.022;2023-03-03T10:16:47;12.30;99.90
7814;DHT22;3952;48.364;16.022;2023-03-03T10:19:27;12.40;99.90
7814;DHT22;3952;48.364;16.022;2023-03-03T10:22:05;12.40;99.90
7814;DHT22;3952;48.364;16.022;2023-03-03T10:24:43;12.60;99.90
7814;DHT22;3952;48.364;16.022;2023-03-03T10:27:26;12.70;99.30
7814;DHT22;3952;48.364;16.022;2023-03-03T10:30:02;12.40;99.90
7814;DHT22;3952;48.364;16.022;2023-03-03T10:32:45;12.60;99.90
7814;DHT22;3952;48.364;16.022;2023-03-03T10:35:38;12.80;98.60
7814;DHT22;3952;48.364;16.022;2023-03-03T10:38:28;12.60;98.00
7814;DHT22;3952;48.364;16.022;2023-03-03T10:41:21;12.80;98.10
7814;DHT22;3952;48.364;16.022;2023-03-03T10:44:07;12.90;97.60
7814;DHT22;3952;48.364;16.022;2023-03-03T10:46:59;12.90;97.30
7814;DHT22;3952;48.364;16.022;2023-03-03T10:49:44;13.10;97.20
7814;DHT22;3952;48.364;16.022;2023-03-03T10:52:29;13.20;97.00
7814;DHT22;3952;48.364;16.022;2023-03-03T10:55:26;13.30;96.50
7814;DHT22;3952;48.364;16.022;2023-03-03T10:58:15;13.20;95.40
7814;DHT22;3952;48.364;16.022;2023-03-03T11:00:50;13.00;95.50
7814;DHT22;3952;48.364;16.022;2023-03-03T11:03:43;13.10;95.00
7814;DHT22;3952;48.364;16.022;2023-03-03T11:06:21;13.10;94.60
7814;DHT22;3952;48.364;16.022;2023-03-03T11:08:53;13.00;94.30
7814;DHT22;3952;48.364;16.022;2023-03-03T11:11:30;12.70;94.40
7814;DHT22;3952;48.364;16.022;2023-03-03T11:14:08;12.50;95.50
7814;DHT22;3952;48.364;16.022;2023-03-03T11:16:44;12.40;94.70
7814;DHT22;3952;48.364;16.022;2023-03-03T11:19:27;12.20;94.80
7814;DHT22;3952;48.364;16.022;2023-03-03T11:22:06;12.10;95.40
7814;DHT22;3952;48.364;16.022;2023-03-03T11:24:47;12.10;95.40
7814;DHT22;3952;48.364;16.022;2023-03-03T11:27:37;12.20;95.80
7814;DHT22;3952;48.364;16.022;2023-03-03T11:33:03;12.40;94.60
7814;DHT22;3952;48.364;16.022;2023-03-03T11:35:39;12.40;95.00
7814;DHT22;3952;48.364;16.022;2023-03-03T11:38:27;12.20;94.80
7814;DHT22;3952;48.364;16.022;2023-03-03T11:41:01;12.10;95.40
7814;DHT22;3952;48.364;16.022;2023-03-03T11:43:32;12.00;95.30
7814;DHT22;3952;48.364;16.022;2023-03-03T11:46:06;11.90;95.40
7814;DHT22;3952;48.364;16.022;2023-03-03T11:48:41;11.90;95.60
7814;DHT22;3952;48.364;16.022;2023-03-03T11:51:13;12.10;96.60
7814;DHT22;3952;48.364;16.022;2023-03-03T11:53:53;12.30;95.30
7814;DHT22;3952;48.364;16.022;2023-03-03T11:56:26;12.40;95.20
7814;DHT22;3952;48.364;16.022;2023-03-03T11:59:02;12.30;94.20
7814;DHT22;3952;48.364;16.022;2023-03-03T12:01:35;12.20;94.30
7814;DHT22;3952;48.364;16.022;2023-03-03T12:04:04;12.20;95.00
7814;DHT22;3952;48.364;16.022;2023-03-03T12:06:39;12.20;95.50
7814;DHT22;3952;48.364;16.022;2023-03-03T12:09:23;12.30;95.70
7814;DHT22;3952;48.364;16.022;2023-03-03T12:11:55;12.00;94.40
7814;DHT22;3952;48.364;16.022;2023-03-03T12:14:40;12.10;94.70
7814;DHT22;3952;48.364;16.022;2023-03-03T12:17:20;12.00;94.40
7814;DHT22;3952;48.364;16.022;2023-03-03T12:19:57;11.90;95.00
7814;DHT22;3952;48.364;16.022;2023-03-03T12:22:31;11.80;95.10
7814;DHT22;3952;48.364;16.022;2023-03-03T12:25:35;11.80;96.10
7814;DHT22;3952;48.364;16.022;2023-03-03T12:28:09;11.90;96.20
7814;DHT22;3952;48.364;16.022;2023-03-03T12:31:08;12.10;96.30
7814;DHT22;3952;48.364;16.022;2023-03-03T12:33:49;12.20;95.30
7814;DHT22;3952;48.364;16.022;2023-03-03T12:36:29;12.30;95.10
7814;DHT22;3952;48.364;16.022;2023-03-03T12:39:05;12.30;94.80
7814;DHT22;3952;48.364;16.022;2023-03-03T12:41:44;12.50;95.30
7814;DHT22;3952;48.364;16.022;2023-03-03T12:44:20;12.80;94.70
7814;DHT22;3952;48.364;16.022;2023-03-03T12:46:56;12.80;94.60
7814;DHT22;3952;48.364;16.022;2023-03-03T12:49:34;12.80;94.00
7814;DHT22;3952;48.364;16.022;2023-03-03T12:52:14;12.70;94.80
7814;DHT22;3952;48.364;16.022;2023-03-03T12:54:52;12.70;93.90
7814;DHT22;3952;48.364;16.022;2023-03-03T12:57:31;12.60;94.20
7814;DHT22;3952;48.364;16.022;2023-03-03T13:00:15;12.70;95.20
7814;DHT22;3952;48.364;16.022;2023-03-03T13:02:54;12.70;94.60
7814;DHT22;3952;48.364;16.022;2023-03-03T13:05:29;12.60;95.30
7814;DHT22;3952;48.364;16.022;2023-03-03T13:08:24;12.70;95.40
7814;DHT22;3952;48.364;16.022;2023-03-03T13:11:00;12.90;94.60
7814;DHT22;3952;48.364;16.022;2023-03-03T13:13:34;13.00;94.00
7814;DHT22;3952;48.364;16.022;2023-03-03T13:16:09;13.10;93.30
7814;DHT22;3952;48.364;16.022;2023-03-03T13:18:48;13.20;93.80
7814;DHT22;3952;48.364;16.022;2023-03-03T13:21:22;13.30;93.70
7814;DHT22;3952;48.364;16.022;2023-03-03T13:23:57;13.30;93.20
7814;DHT22;3952;48.364;16.022;2023-03-03T13:26:32;13.20;91.80
7814;DHT22;3952;48.364;16.022;2023-03-03T13:29:13;13.10;91.80
7814;DHT22;3952;48.364;16.022;2023-03-03T13:31:46;12.90;92.60
7814;DHT22;3952;48.364;16.022;2023-03-03T13:34:24;13.00;92.60
7814;DHT22;3952;48.364;16.022;2023-03-03T13:36:57;13.00;92.00
7814;DHT22;3952;48.364;16.022;2023-03-03T13:39:29;12.90;91.20
7814;DHT22;3952;48.364;16.022;2023-03-03T13:42:01;12.80;92.10
7814;DHT22;3952;48.364;16.022;2023-03-03T13:44:35;12.80;92.80
7814;DHT22;3952;48.364;16.022;2023-03-03T13:47:12;12.80;92.50
7814;DHT22;3952;48.364;16.022;2023-03-03T13:52:54;12.90;93.00
7814;DHT22;3952;48.364;16.022;2023-03-03T13:55:29;12.90;93.50
7814;DHT22;3952;48.364;16.022;2023-03-03T13:58:02;13.00;93.80
7814;DHT22;3952;48.364;16.022;2023-03-03T14:00:43;13.10;94.00
7814;DHT22;3952;48.364;16.022;2023-03-03T14:03:39;13.10;94.20
7814;DHT22;3952;48.364;16.022;2023-03-03T14:06:13;13.10;93.60
7814;DHT22;3952;48.364;16.022;2023-03-03T14:08:54;13.10;93.70
7814;DHT22;3952;48.364;16.022;2023-03-03T14:11:28;13.10;93.20
7814;DHT22;3952;48.364;16.022;2023-03-03T14:14:02;13.10;93.30
7814;DHT22;3952;48.364;16.022;2023-03-03T14:16:49;13.00;92.40
7814;DHT22;3952;48.364;16.022;2023-03-03T14:19:19;13.00;93.40
7814;DHT22;3952;48.364;16.022;2023-03-03T14:21:56;13.00;93.00
7814;DHT22;3952;48.364;16.022;2023-03-03T14:24:26;13.00;92.60
7814;DHT22;3952;48.364;16.022;2023-03-03T14:26:55;12.90;92.70
7814;DHT22;3952;48.364;16.022;2023-03-03T14:29:30;12.90;93.00
7814;DHT22;3952;48.364;16.022;2023-03-03T14:32:00;12.80;92.80
7814;DHT22;3952;48.364;16.022;2023-03-03T14:34:37;12.80;92.50
7814;DHT22;3952;48.364;16.022;2023-03-03T14:37:24;12.70;92.50
7814;DHT22;3952;48.364;16.022;2023-03-03T14:40:13;12.70;92.10
7814;DHT22;3952;48.364;16.022;2023-03-03T14:42:47;12.70;92.60
7814;DHT22;3952;48.364;16.022;2023-03-03T14:45:20;12.60;92.30
7814;DHT22;3952;48.364;16.022;2023-03-03T14:47:50;12.50;91.70
7814;DHT22;3952;48.364;16.022;2023-03-03T14:50:31;12.50;92.60
7814;DHT22;3952;48.364;16.022;2023-03-03T14:53:19;12.40;91.80
7814;DHT22;3952;48.364;16.022;2023-03-03T14:55:49;12.30;92.10
7814;DHT22;3952;48.364;16.022;2023-03-03T14:58:25;12.30;92.40
7814;DHT22;3952;48.364;16.022;2023-03-03T15:01:16;12.20;91.60
7814;DHT22;3952;48.364;16.022;2023-03-03T15:03:56;12.20;91.90
7814;DHT22;3952;48.364;16.022;2023-03-03T15:06:30;12.20;92.20
7814;DHT22;3952;48.364;16.022;2023-03-03T15:09:20;12.20;92.00
7814;DHT22;3952;48.364;16.022;2023-03-03T15:11:51;12.20;92.00
7814;DHT22;3952;48.364;16.022;2023-03-03T15:14:22;12.20;91.90
7814;DHT22;3952;48.364;16.022;2023-03-03T15:16:51;12.20;91.70
7814;DHT22;3952;48.364;16.022;2023-03-03T15:22:22;12.10;92.60
7814;DHT22;3952;48.364;16.022;2023-03-03T15:24:59;12.10;92.30
7814;DHT22;3952;48.364;16.022;2023-03-03T15:27:30;12.10;92.70
7814;DHT22;3952;48.364;16.022;2023-03-03T15:30:06;12.10;92.50
7814;DHT22;3952;48.364;16.022;2023-03-03T15:32:42;12.00;92.60
7814;DHT22;3952;48.364;16.022;2023-03-03T15:35:25;12.00;93.40
7814;DHT22;3952;48.364;16.022;2023-03-03T15:38:00;12.00;92.50
7814;DHT22;3952;48.364;16.022;2023-03-03T15:40:31;11.90;92.50
7814;DHT22;3952;48.364;16.022;2023-03-03T15:43:05;11.90;93.00
7814;DHT22;3952;48.364;16.022;2023-03-03T15:45:43;11.90;93.70
7814;DHT22;3952;48.364;16.022;2023-03-03T15:48:25;11.80;93.30
7814;DHT22;3952;48.364;16.022;2023-03-03T15:51:05;11.80;93.60
7814;DHT22;3952;48.364;16.022;2023-03-03T15:53:48;11.80;93.20
7814;DHT22;3952;48.364;16.022;2023-03-03T15:56:27;11.80;94.10
7814;DHT22;3952;48.364;16.022;2023-03-03T16:02:03;11.60;90.70
7814;DHT22;3952;48.364;16.022;2023-03-03T16:04:36;11.60;89.60
7814;DHT22;3952;48.364;16.022;2023-03-03T16:07:16;11.50;90.20
7814;DHT22;3952;48.364;16.022;2023-03-03T16:09:51;11.40;90.70
7814;DHT22;3952;48.364;16.022;2023-03-03T16:12:28;11.40;89.00
7814;DHT22;3952;48.364;16.022;2023-03-03T16:15:17;12.20;89.00
7814;DHT22;3952;48.364;16.022;2023-03-03T16:17:53;11.30;88.90
7814;DHT22;3952;48.364;16.022;2023-03-03T16:20:30;11.20;88.70
7814;DHT22;3952;48.364;16.022;2023-03-03T16:26:14;11.00;89.90
7814;DHT22;3952;48.364;16.022;2023-03-03T16:28:56;10.90;90.20
7814;DHT22;3952;48.364;16.022;2023-03-03T16:31:33;10.90;90.30
7814;DHT22;3952;48.364;16.022;2023-03-03T16:34:09;10.80;90.50
7814;DHT22;3952;48.364;16.022;2023-03-03T16:36:49;10.70;91.10
7814;DHT22;3952;48.364;16.022;2023-03-03T16:39:22;10.60;91.30
7814;DHT22;3952;48.364;16.022;2023-03-03T16:41:58;10.50;91.30
7814;DHT22;3952;48.364;16.022;2023-03-03T16:44:35;10.50;91.50
7814;DHT22;3952;48.364;16.022;2023-03-03T16:47:18;10.40;91.30
7814;DHT22;3952;48.364;16.022;2023-03-03T16:49:58;10.30;91.00